sensor_id;sensor_type;location;lat;lon;timestamp;temperature;humidity
84141;DHT22;74257;52.540;13.416;2024-02-21T00:00:52;19.50;43.10
84141;DHT22;74257;52.540;13.416;2024-02-21T00:03:38;19.50;43.10
84141;DHT22;74257;52.540;13.416;2024-02-21T00:06:04;19.50;43.10
84141;DHT22;74257;52.540;13.416;2024-02-21T00:08:30;19.50;43.10
84141;DHT22;74257;52.540;13.416;2024-02-21T00:10:56;19.50;43.20
84141;DHT22;74257;52.540;13.416;2024-02-21T00:13:21;19.50;43.10
84141;DHT22;74257;52.540;13.416;2024-02-21T00:15:47;19.50;43.20
84141;DHT22;74257;52.540;13.416;2024-02-21T00:18:13;19.50;43.10
84141;DHT22;74257;52.540;13.416;2024-02-21T00:20:39;19.50;43.10
84141;DHT22;74257;52.540;13.416;2024-02-21T00:23:04;19.50;43.20
84141;DHT22;74257;52.540;13.416;2024-02-21T00:25:30;19.50;43.20
84141;DHT22;74257;52.540;13.416;2024-02-21T00:27:56;19.50;43.10
84141;DHT22;74257;52.540;13.416;2024-02-21T00:30:22;19.50;43.10
84141;DHT22;74257;52.540;13.416;2024-02-21T00:32:47;19.50;43.20
84141;DHT22;74257;52.540;13.416;2024-02-21T00:35:14;19.50;43.20
84141;DHT22;74257;52.540;13.416;2024-02-21T00:37:40;19.50;43.20
84141;DHT22;74257;52.540;13.416;2024-02-21T00:40:06;19.50;43.20
84141;DHT22;74257;52.540;13.416;2024-02-21T00:42:32;19.50;43.20
84141;DHT22;74257;52.540;13.416;2024-02-21T00:44:58;19.50;43.10
84141;DHT22;74257;52.540;13.416;2024-02-21T00:47:24;19.50;43.20
84141;DHT22;74257;52.540;13.416;2024-02-21T00:49:49;19.50;43.20
84141;DHT22;74257;52.540;13.416;2024-02-21T00:52:15;19.50;43.20
84141;DHT22;74257;52.540;13.416;2024-02-21T00:54:41;19.50;43.20
84141;DHT22;74257;52.540;13.416;2024-02-21T00:57:07;19.50;43.10
84141;DHT22;74257;52.540;13.416;2024-02-21T00:59:32;19.50;43.20
84141;DHT22;74257;52.540;13.416;2024-02-21T01:01:58;19.50;43.10
84141;DHT22;74257;52.540;13.416;2024-02-21T01:04:24;19.50;43.20
84141;DHT22;74257;52.540;13.416;2024-02-21T01:06:50;19.50;43.20
84141;DHT22;74257;52.540;13.416;2024-02-21T01:09:16;19.50;43.20
84141;DHT22;74257;52.540;13.416;2024-02-21T01:11:42;19.50;43.20
84141;DHT22;74257;52.540;13.416;2024-02-21T01:14:07;19.50;43.20
84141;DHT22;74257;52.540;13.416;2024-02-21T01:16:33;19.50;43.20
84141;DHT22;74257;52.540;13.416;2024-02-21T01:18:59;19.50;43.20
84141;DHT22;74257;52.540;13.416;2024-02-21T01:21:26;19.50;43.10
84141;DHT22;74257;52.540;13.416;2024-02-21T01:23:51;19.40;43.20
84141;DHT22;74257;52.540;13.416;2024-02-21T01:26:17;19.50;43.20
84141;DHT22;74257;52.540;13.416;2024-02-21T01:28:43;19.40;43.20
84141;DHT22;74257;52.540;13.416;2024-02-21T01:31:10;19.50;43.20
84141;DHT22;74257;52.540;13.416;2024-02-21T01:33:35;19.50;43.20
84141;DHT22;74257;52.540;13.416;2024-02-21T01:36:02;19.40;43.20
84141;DHT22;74257;52.540;13.416;2024-02-21T01:38:28;19.50;43.20
84141;DHT22;74257;52.540;13.416;2024-02-21T01:40:54;19.40;43.20
84141;DHT22;74257;52.540;13.416;2024-02-21T01:43:20;19.40;43.20
84141;DHT22;74257;52.540;13.416;2024-02-21T01:45:49;19.40;43.10
84141;DHT22;74257;52.540;13.416;2024-02-21T01:48:20;19.40;43.20
84141;DHT22;74257;52.540;13.416;2024-02-21T01:50:47;19.50;43.10
84141;DHT22;74257;52.540;13.416;2024-02-21T01:53:17;19.40;43.20
84141;DHT22;74257;52.540;13.416;2024-02-21T01:55:45;19.40;43.20
84141;DHT22;74257;52.540;13.416;2024-02-21T01:58:13;19.40;43.10
84141;DHT22;74257;52.540;13.416;2024-02-21T02:00:42;19.40;43.20
84141;DHT22;74257;52.540;13.416;2024-02-21T02:03:10;19.40;43.20
84141;DHT22;74257;52.540;13.416;2024-02-21T02:05:46;19.40;43.10
84141;DHT22;74257;52.540;13.416;2024-02-21T02:08:13;19.40;43.10
84141;DHT22;74257;52.540;13.416;2024-02-21T02:10:40;19.40;43.20
84141;DHT22;74257;52.540;13.416;2024-02-21T02:13:05;19.40;43.20
84141;DHT22;74257;52.540;13.416;2024-02-21T02:15:58;19.40;43.20
84141;DHT22;74257;52.540;13.416;2024-02-21T02:18:23;19.40;43.10
84141;DHT22;74257;52.540;13.416;2024-02-21T02:20:49;19.40;43.10
84141;DHT22;74257;52.540;13.416;2024-02-21T02:23:20;19.40;43.10
84141;DHT22;74257;52.540;13.416;2024-02-21T02:25:47;19.40;43.10
84141;DHT22;74257;52.540;13.416;2024-02-21T02:28:15;19.40;43.20
84141;DHT22;74257;52.540;13.416;2024-02-21T02:30:41;19.40;43.20
84141;DHT22;74257;52.540;13.416;2024-02-21T02:33:06;19.40;43.10
84141;DHT22;74257;52.540;13.416;2024-02-21T02:35:33;19.40;43.20
84141;DHT22;74257;52.540;13.416;2024-02-21T02:38:00;19.40;43.20
84141;DHT22;74257;52.540;13.416;2024-02-21T02:40:26;19.40;43.20
84141;DHT22;74257;52.540;13.416;2024-02-21T02:42:52;19.40;43.10
84141;DHT22;74257;52.540;13.416;2024-02-21T02:45:21;19.40;43.10
84141;DHT22;74257;52.540;13.416;2024-02-21T02:47:48;19.40;43.20
84141;DHT22;74257;52.540;13.416;2024-02-21T02:50:14;19.40;43.20
84141;DHT22;74257;52.540;13.416;2024-02-21T02:52:40;19.40;43.10
84141;DHT22;74257;52.540;13.416;2024-02-21T02:55:06;19.40;43.20
84141;DHT22;74257;52.540;13.416;2024-02-21T02:57:32;19.40;43.20
84141;DHT22;74257;52.540;13.416;2024-02-21T02:59:58;19.40;43.10
84141;DHT22;74257;52.540;13.416;2024-02-21T03:02:24;19.40;43.20
84141;DHT22;74257;52.540;13.416;2024-02-21T03:04:50;19.40;43.20
84141;DHT22;74257;52.540;13.416;2024-02-21T03:07:16;19.40;43.20
84141;DHT22;74257;52.540;13.416;2024-02-21T03:09:42;19.40;43.10
84141;DHT22;74257;52.540;13.416;2024-02-21T03:12:10;19.40;43.20
84141;DHT22;74257;52.540;13.416;2024-02-21T03:14:37;19.40;43.10
84141;DHT22;74257;52.540;13.416;2024-02-21T03:17:03;19.40;43.10
84141;DHT22;74257;52.540;13.416;2024-02-21T03:19:30;19.40;43.10
84141;DHT22;74257;52.540;13.416;2024-02-21T03:21:56;19.40;43.10
84141;DHT22;74257;52.540;13.416;2024-02-21T03:24:22;19.40;43.10
84141;DHT22;74257;52.540;13.416;2024-02-21T03:26:48;19.40;43.10
84141;DHT22;74257;52.540;13.416;2024-02-21T03:29:15;19.40;43.20
84141;DHT22;74257;52.540;13.416;2024-02-21T03:31:42;19.40;43.20
84141;DHT22;74257;52.540;13.416;2024-02-21T03:34:09;19.30;43.10
84141;DHT22;74257;52.540;13.416;2024-02-21T03:36:35;19.40;43.10
84141;DHT22;74257;52.540;13.416;2024-02-21T03:39:01;19.30;43.10
84141;DHT22;74257;52.540;13.416;2024-02-21T03:41:27;19.30;43.10
84141;DHT22;74257;52.540;13.416;2024-02-21T03:43:52;19.40;43.10
84141;DHT22;74257;52.540;13.416;2024-02-21T03:46:18;19.30;43.10
84141;DHT22;74257;52.540;13.416;2024-02-21T03:48:44;19.30;43.10
84141;DHT22;74257;52.540;13.416;2024-02-21T03:51:11;19.30;43.20
84141;DHT22;74257;52.540;13.416;2024-02-21T03:53:36;19.30;43.20
84141;DHT22;74257;52.540;13.416;2024-02-21T03:56:03;19.30;43.10
84141;DHT22;74257;52.540;13.416;2024-02-21T03:58:33;19.30;43.10
84141;DHT22;74257;52.540;13.416;2024-02-21T04:01:01;19.30;43.10
84141;DHT22;74257;52.540;13.416;2024-02-21T04:03:28;19.30;43.10
84141;DHT22;74257;52.540;13.416;2024-02-21T04:05:53;19.30;43.10
84141;DHT22;74257;52.540;13.416;2024-02-21T04:08:19;19.30;43.10
84141;DHT22;74257;52.540;13.416;2024-02-21T04:10:45;19.30;43.20
84141;DHT22;74257;52.540;13.416;2024-02-21T04:13:11;19.30;43.10
84141;DHT22;74257;52.540;13.416;2024-02-21T04:15:36;19.30;43.10
84141;DHT22;74257;52.540;13.416;2024-02-21T04:18:02;19.30;43.20
84141;DHT22;74257;52.540;13.416;2024-02-21T04:20:28;19.30;43.20
84141;DHT22;74257;52.540;13.416;2024-02-21T04:22:55;19.30;43.20
84141;DHT22;74257;52.540;13.416;2024-02-21T04:25:20;19.30;43.20
84141;DHT22;74257;52.540;13.416;2024-02-21T04:27:46;19.30;43.20
84141;DHT22;74257;52.540;13.416;2024-02-21T04:30:12;19.30;43.10
84141;DHT22;74257;52.540;13.416;2024-02-21T04:32:39;19.30;43.10
84141;DHT22;74257;52.540;13.416;2024-02-21T04:35:05;19.30;43.20
84141;DHT22;74257;52.540;13.416;2024-02-21T04:37:31;19.30;43.10
84141;DHT22;74257;52.540;13.416;2024-02-21T04:39:56;19.30;43.20
84141;DHT22;74257;52.540;13.416;2024-02-21T04:42:23;19.30;43.10
84141;DHT22;74257;52.540;13.416;2024-02-21T04:44:48;19.30;43.10
84141;DHT22;74257;52.540;13.416;2024-02-21T04:47:14;19.30;43.10
84141;DHT22;74257;52.540;13.416;2024-02-21T04:49:40;19.30;43.10
84141;DHT22;74257;52.540;13.416;2024-02-21T04:52:05;19.30;43.10
84141;DHT22;74257;52.540;13.416;2024-02-21T04:54:31;19.30;43.10
84141;DHT22;74257;52.540;13.416;2024-02-21T04:56:57;19.30;43.10
84141;DHT22;74257;52.540;13.416;2024-02-21T04:59:23;19.30;43.10
84141;DHT22;74257;52.540;13.416;2024-02-21T05:01:48;19.30;43.20
84141;DHT22;74257;52.540;13.416;2024-02-21T05:04:15;19.20;43.20
84141;DHT22;74257;52.540;13.416;2024-02-21T05:06:41;19.30;43.10
84141;DHT22;74257;52.540;13.416;2024-02-21T05:09:08;19.30;43.10
84141;DHT22;74257;52.540;13.416;2024-02-21T05:11:35;19.30;43.20
84141;DHT22;74257;52.540;13.416;2024-02-21T05:14:01;19.30;43.10
84141;DHT22;74257;52.540;13.416;2024-02-21T05:16:27;19.30;43.10
84141;DHT22;74257;52.540;13.416;2024-02-21T05:18:52;19.30;43.10
84141;DHT22;74257;52.540;13.416;2024-02-21T05:21:18;19.20;43.10
84141;DHT22;74257;52.540;13.416;2024-02-21T05:23:44;19.30;43.10
84141;DHT22;74257;52.540;13.416;2024-02-21T05:26:10;19.20;43.10
84141;DHT22;74257;52.540;13.416;2024-02-21T05:28:36;19.30;43.10
84141;DHT22;74257;52.540;13.416;2024-02-21T05:31:02;19.20;43.10
84141;DHT22;74257;52.540;13.416;2024-02-21T05:33:28;19.20;43.10
84141;DHT22;74257;52.540;13.416;2024-02-21T05:35:54;19.30;43.20
84141;DHT22;74257;52.540;13.416;2024-02-21T05:38:19;19.20;43.10
84141;DHT22;74257;52.540;13.416;2024-02-21T05:40:45;19.30;43.10
84141;DHT22;74257;52.540;13.416;2024-02-21T05:43:11;19.20;43.10
84141;DHT22;74257;52.540;13.416;2024-02-21T05:45:37;19.20;43.10
84141;DHT22;74257;52.540;13.416;2024-02-21T05:48:03;19.20;43.10
84141;DHT22;74257;52.540;13.416;2024-02-21T05:50:29;19.20;43.20
84141;DHT22;74257;52.540;13.416;2024-02-21T05:52:55;19.20;43.20
84141;DHT22;74257;52.540;13.416;2024-02-21T05:55:22;19.20;43.10
84141;DHT22;74257;52.540;13.416;2024-02-21T05:57:48;19.20;43.10
84141;DHT22;74257;52.540;13.416;2024-02-21T06:00:14;19.20;43.10
84141;DHT22;74257;52.540;13.416;2024-02-21T06:02:41;19.20;43.10
84141;DHT22;74257;52.540;13.416;2024-02-21T06:05:07;19.20;43.10
84141;DHT22;74257;52.540;13.416;2024-02-21T06:07:33;19.20;43.10
84141;DHT22;74257;52.540;13.416;2024-02-21T06:10:01;19.20;43.10
84141;DHT22;74257;52.540;13.416;2024-02-21T06:12:26;19.20;43.10
84141;DHT22;74257;52.540;13.416;2024-02-21T06:14:52;19.20;43.10
84141;DHT22;74257;52.540;13.416;2024-02-21T06:17:18;19.20;43.10
84141;DHT22;74257;52.540;13.416;2024-02-21T06:19:44;19.20;43.10
84141;DHT22;74257;52.540;13.416;2024-02-21T06:22:12;19.20;43.10
84141;DHT22;74257;52.540;13.416;2024-02-21T06:24:38;19.20;43.10
84141;DHT22;74257;52.540;13.416;2024-02-21T06:27:05;19.20;43.10
84141;DHT22;74257;52.540;13.416;2024-02-21T06:29:33;19.20;43.00
84141;DHT22;74257;52.540;13.416;2024-02-21T06:31:59;19.20;43.00
84141;DHT22;74257;52.540;13.416;2024-02-21T06:34:25;19.20;43.10
84141;DHT22;74257;52.540;13.416;2024-02-21T06:36:51;19.20;43.10
84141;DHT22;74257;52.540;13.416;2024-02-21T06:39:17;19.20;43.10
84141;DHT22;74257;52.540;13.416;2024-02-21T06:41:43;19.20;43.10
84141;DHT22;74257;52.540;13.416;2024-02-21T06:44:09;19.20;43.10
84141;DHT22;74257;52.540;13.416;2024-02-21T06:46:35;19.20;43.10
84141;DHT22;74257;52.540;13.416;2024-02-21T06:49:01;19.20;43.10
84141;DHT22;74257;52.540;13.416;2024-02-21T06:51:28;19.20;43.10
84141;DHT22;74257;52.540;13.416;2024-02-21T06:53:55;19.20;43.10
84141;DHT22;74257;52.540;13.416;2024-02-21T06:56:23;19.20;43.10
84141;DHT22;74257;52.540;13.416;2024-02-21T06:58:52;19.20;43.10
84141;DHT22;74257;52.540;13.416;2024-02-21T07:01:18;19.20;43.10
84141;DHT22;74257;52.540;13.416;2024-02-21T07:03:44;19.20;43.10
84141;DHT22;74257;52.540;13.416;2024-02-21T07:06:09;19.20;43.10
84141;DHT22;74257;52.540;13.416;2024-02-21T07:08:35;19.20;43.10
84141;DHT22;74257;52.540;13.416;2024-02-21T07:11:01;19.20;43.10
84141;DHT22;74257;52.540;13.416;2024-02-21T07:13:27;19.20;43.10
84141;DHT22;74257;52.540;13.416;2024-02-21T07:15:52;19.20;43.10
84141;DHT22;74257;52.540;13.416;2024-02-21T07:18:18;19.20;43.10
84141;DHT22;74257;52.540;13.416;2024-02-21T07:20:44;19.20;43.10
84141;DHT22;74257;52.540;13.416;2024-02-21T07:23:10;19.20;43.10
84141;DHT22;74257;52.540;13.416;2024-02-21T07:25:35;19.20;43.10
84141;DHT22;74257;52.540;13.416;2024-02-21T07:28:01;19.20;43.10
84141;DHT22;74257;52.540;13.416;2024-02-21T07:30:28;19.20;43.10
84141;DHT22;74257;52.540;13.416;2024-02-21T07:32:54;19.20;43.20
84141;DHT22;74257;52.540;13.416;2024-02-21T07:35:19;19.20;43.20
84141;DHT22;74257;52.540;13.416;2024-02-21T07:37:45;19.20;43.10
84141;DHT22;74257;52.540;13.416;2024-02-21T07:40:15;19.20;43.10
84141;DHT22;74257;52.540;13.416;2024-02-21T07:42:41;19.20;43.20
84141;DHT22;74257;52.540;13.416;2024-02-21T07:45:08;19.20;43.10
84141;DHT22;74257;52.540;13.416;2024-02-21T07:47:34;19.20;43.10
84141;DHT22;74257;52.540;13.416;2024-02-21T07:50:01;19.20;43.20
84141;DHT22;74257;52.540;13.416;2024-02-21T07:52:27;19.20;43.20
84141;DHT22;74257;52.540;13.416;2024-02-21T07:54:53;19.20;43.20
84141;DHT22;74257;52.540;13.416;2024-02-21T07:57:19;19.10;43.20
84141;DHT22;74257;52.540;13.416;2024-02-21T07:59:45;19.10;43.20
84141;DHT22;74257;52.540;13.416;2024-02-21T08:02:14;19.10;43.20
84141;DHT22;74257;52.540;13.416;2024-02-21T08:04:39;19.20;43.10
84141;DHT22;74257;52.540;13.416;2024-02-21T08:07:05;19.20;43.20
84141;DHT22;74257;52.540;13.416;2024-02-21T08:09:31;19.20;43.20
84141;DHT22;74257;52.540;13.416;2024-02-21T08:11:57;19.20;43.20
84141;DHT22;74257;52.540;13.416;2024-02-21T08:14:23;19.10;43.20
84141;DHT22;74257;52.540;13.416;2024-02-21T08:16:51;19.10;43.20
84141;DHT22;74257;52.540;13.416;2024-02-21T08:19:19;19.20;43.20
84141;DHT22;74257;52.540;13.416;2024-02-21T08:21:45;19.20;43.20
84141;DHT22;74257;52.540;13.416;2024-02-21T08:24:14;19.10;43.20
84141;DHT22;74257;52.540;13.416;2024-02-21T08:26:44;19.20;43.20
84141;DHT22;74257;52.540;13.416;2024-02-21T08:29:13;19.20;43.20
84141;DHT22;74257;52.540;13.416;2024-02-21T08:31:39;19.10;43.20
84141;DHT22;74257;52.540;13.416;2024-02-21T08:34:05;19.10;43.20
84141;DHT22;74257;52.540;13.416;2024-02-21T08:36:31;19.10;43.20
84141;DHT22;74257;52.540;13.416;2024-02-21T08:38:58;19.10;43.20
84141;DHT22;74257;52.540;13.416;2024-02-21T08:41:24;19.20;43.20
84141;DHT22;74257;52.540;13.416;2024-02-21T08:43:51;19.10;43.20
84141;DHT22;74257;52.540;13.416;2024-02-21T08:46:17;19.10;43.20
84141;DHT22;74257;52.540;13.416;2024-02-21T08:48:43;19.20;43.20
84141;DHT22;74257;52.540;13.416;2024-02-21T08:51:11;19.10;43.20
84141;DHT22;74257;52.540;13.416;2024-02-21T08:53:37;19.10;43.20
84141;DHT22;74257;52.540;13.416;2024-02-21T08:56:04;19.20;43.30
84141;DHT22;74257;52.540;13.416;2024-02-21T08:58:30;19.20;43.20
84141;DHT22;74257;52.540;13.416;2024-02-21T09:00:56;19.20;43.20
84141;DHT22;74257;52.540;13.416;2024-02-21T09:03:22;19.20;43.30
84141;DHT22;74257;52.540;13.416;2024-02-21T09:05:48;19.20;43.30
84141;DHT22;74257;52.540;13.416;2024-02-21T09:08:14;19.20;43.20
84141;DHT22;74257;52.540;13.416;2024-02-21T09:10:40;19.10;43.20
84141;DHT22;74257;52.540;13.416;2024-02-21T09:13:06;19.20;43.20
84141;DHT22;74257;52.540;13.416;2024-02-21T09:15:33;19.20;43.30
84141;DHT22;74257;52.540;13.416;2024-02-21T09:17:59;19.10;43.30
84141;DHT22;74257;52.540;13.416;2024-02-21T09:20:25;19.20;43.30
84141;DHT22;74257;52.540;13.416;2024-02-21T09:22:51;19.20;43.30
84141;DHT22;74257;52.540;13.416;2024-02-21T09:25:18;19.20;43.30
84141;DHT22;74257;52.540;13.416;2024-02-21T09:27:46;19.20;43.30
84141;DHT22;74257;52.540;13.416;2024-02-21T09:30:12;19.20;43.30
84141;DHT22;74257;52.540;13.416;2024-02-21T09:32:38;19.20;43.30
84141;DHT22;74257;52.540;13.416;2024-02-21T09:35:04;19.20;43.30
84141;DHT22;74257;52.540;13.416;2024-02-21T09:37:33;19.20;43.30
84141;DHT22;74257;52.540;13.416;2024-02-21T09:39:59;19.20;43.30
84141;DHT22;74257;52.540;13.416;2024-02-21T09:42:39;19.20;43.30
84141;DHT22;74257;52.540;13.416;2024-02-21T09:45:09;19.20;43.30
84141;DHT22;74257;52.540;13.416;2024-02-21T09:47:46;19.20;43.40
84141;DHT22;74257;52.540;13.416;2024-02-21T09:50:17;19.20;43.40
84141;DHT22;74257;52.540;13.416;2024-02-21T09:52:44;19.20;43.40
84141;DHT22;74257;52.540;13.416;2024-02-21T09:55:10;19.20;43.40
84141;DHT22;74257;52.540;13.416;2024-02-21T09:57:38;19.20;43.40
84141;DHT22;74257;52.540;13.416;2024-02-21T10:00:05;19.20;43.30
84141;DHT22;74257;52.540;13.416;2024-02-21T10:02:33;19.20;43.30
84141;DHT22;74257;52.540;13.416;2024-02-21T10:04:59;19.20;43.40
84141;DHT22;74257;52.540;13.416;2024-02-21T10:07:25;19.20;43.40
84141;DHT22;74257;52.540;13.416;2024-02-21T10:10:03;19.20;43.40
84141;DHT22;74257;52.540;13.416;2024-02-21T10:12:29;19.20;43.40
84141;DHT22;74257;52.540;13.416;2024-02-21T10:15:05;19.20;43.30
84141;DHT22;74257;52.540;13.416;2024-02-21T10:17:34;19.20;43.40
84141;DHT22;74257;52.540;13.416;2024-02-21T10:20:10;19.20;43.40
84141;DHT22;74257;52.540;13.416;2024-02-21T10:22:37;19.20;43.40
84141;DHT22;74257;52.540;13.416;2024-02-21T10:25:08;19.20;43.40
84141;DHT22;74257;52.540;13.416;2024-02-21T10:27:34;19.20;43.30
84141;DHT22;74257;52.540;13.416;2024-02-21T10:30:00;19.20;43.40
84141;DHT22;74257;52.540;13.416;2024-02-21T10:32:25;19.20;43.40
84141;DHT22;74257;52.540;13.416;2024-02-21T10:35:01;19.20;43.40
84141;DHT22;74257;52.540;13.416;2024-02-21T10:37:27;19.20;43.40
84141;DHT22;74257;52.540;13.416;2024-02-21T10:39:53;19.20;43.50
84141;DHT22;74257;52.540;13.416;2024-02-21T10:42:21;19.20;43.40
84141;DHT22;74257;52.540;13.416;2024-02-21T10:44:52;19.20;43.50
84141;DHT22;74257;52.540;13.416;2024-02-21T10:47:19;19.30;43.50
84141;DHT22;74257;52.540;13.416;2024-02-21T10:49:53;19.20;43.40
84141;DHT22;74257;52.540;13.416;2024-02-21T10:52:32;19.30;43.40
84141;DHT22;74257;52.540;13.416;2024-02-21T10:55:10;19.30;43.40
84141;DHT22;74257;52.540;13.416;2024-02-21T10:57:40;19.30;43.40
84141;DHT22;74257;52.540;13.416;2024-02-21T11:00:07;19.30;43.40
84141;DHT22;74257;52.540;13.416;2024-02-21T11:02:34;19.30;43.40
84141;DHT22;74257;52.540;13.416;2024-02-21T11:05:01;19.30;43.30
84141;DHT22;74257;52.540;13.416;2024-02-21T11:07:30;19.30;43.30
84141;DHT22;74257;52.540;13.416;2024-02-21T11:09:58;19.30;43.30
84141;DHT22;74257;52.540;13.416;2024-02-21T11:12:25;19.30;43.30
84141;DHT22;74257;52.540;13.416;2024-02-21T11:15:03;19.30;43.40
84141;DHT22;74257;52.540;13.416;2024-02-21T11:17:29;19.30;43.50
84141;DHT22;74257;52.540;13.416;2024-02-21T11:19:55;19.30;43.50
84141;DHT22;74257;52.540;13.416;2024-02-21T11:22:21;19.30;43.40
84141;DHT22;74257;52.540;13.416;2024-02-21T11:24:50;19.30;43.50
84141;DHT22;74257;52.540;13.416;2024-02-21T11:27:19;19.30;43.50
84141;DHT22;74257;52.540;13.416;2024-02-21T11:29:58;19.30;43.50
84141;DHT22;74257;52.540;13.416;2024-02-21T11:32:25;19.30;43.50
84141;DHT22;74257;52.540;13.416;2024-02-21T11:35:01;19.30;43.50
84141;DHT22;74257;52.540;13.416;2024-02-21T11:37:29;19.30;43.50
84141;DHT22;74257;52.540;13.416;2024-02-21T11:39:56;19.30;43.50
84141;DHT22;74257;52.540;13.416;2024-02-21T11:42:22;19.30;43.50
84141;DHT22;74257;52.540;13.416;2024-02-21T11:44:48;19.30;43.50
84141;DHT22;74257;52.540;13.416;2024-02-21T11:47:15;19.40;43.50
84141;DHT22;74257;52.540;13.416;2024-02-21T11:49:47;19.40;43.50
84141;DHT22;74257;52.540;13.416;2024-02-21T11:52:16;19.40;43.50
84141;DHT22;74257;52.540;13.416;2024-02-21T11:54:42;19.40;43.40
84141;DHT22;74257;52.540;13.416;2024-02-21T11:57:07;19.40;43.40
84141;DHT22;74257;52.540;13.416;2024-02-21T11:59:34;19.40;43.50
84141;DHT22;74257;52.540;13.416;2024-02-21T12:02:02;19.40;43.50
84141;DHT22;74257;52.540;13.416;2024-02-21T12:04:29;19.40;43.40
84141;DHT22;74257;52.540;13.416;2024-02-21T12:06:57;19.40;43.40
84141;DHT22;74257;52.540;13.416;2024-02-21T12:09:24;19.40;43.50
84141;DHT22;74257;52.540;13.416;2024-02-21T12:12:03;19.40;43.50
84141;DHT22;74257;52.540;13.416;2024-02-21T12:14:31;19.40;43.50
84141;DHT22;74257;52.540;13.416;2024-02-21T12:16:59;19.40;43.50
84141;DHT22;74257;52.540;13.416;2024-02-21T12:19:25;19.50;43.50
84141;DHT22;74257;52.540;13.416;2024-02-21T12:21:51;19.40;43.50
84141;DHT22;74257;52.540;13.416;2024-02-21T12:24:25;19.40;43.50
84141;DHT22;74257;52.540;13.416;2024-02-21T12:26:52;19.50;43.50
84141;DHT22;74257;52.540;13.416;2024-02-21T12:29:21;19.50;43.60
84141;DHT22;74257;52.540;13.416;2024-02-21T12:31:47;19.50;43.50
84141;DHT22;74257;52.540;13.416;2024-02-21T12:34:14;19.50;43.50
84141;DHT22;74257;52.540;13.416;2024-02-21T12:36:44;19.50;43.50
84141;DHT22;74257;52.540;13.416;2024-02-21T12:39:10;19.50;43.60
84141;DHT22;74257;52.540;13.416;2024-02-21T12:41:37;19.50;43.60
84141;DHT22;74257;52.540;13.416;2024-02-21T12:44:07;19.50;43.50
84141;DHT22;74257;52.540;13.416;2024-02-21T12:46:35;19.50;43.70
84141;DHT22;74257;52.540;13.416;2024-02-21T12:49:01;19.50;43.60
84141;DHT22;74257;52.540;13.416;2024-02-21T12:51:28;19.50;43.50
84141;DHT22;74257;52.540;13.416;2024-02-21T12:53:55;19.50;43.50
84141;DHT22;74257;52.540;13.416;2024-02-21T12:56:21;19.50;43.50
84141;DHT22;74257;52.540;13.416;2024-02-21T12:58:47;19.50;43.50
84141;DHT22;74257;52.540;13.416;2024-02-21T13:01:12;19.50;43.60
84141;DHT22;74257;52.540;13.416;2024-02-21T13:03:38;19.50;43.60
84141;DHT22;74257;52.540;13.416;2024-02-21T13:06:05;19.50;43.60
84141;DHT22;74257;52.540;13.416;2024-02-21T13:08:31;19.50;43.50
84141;DHT22;74257;52.540;13.416;2024-02-21T13:10:56;19.50;43.50
84141;DHT22;74257;52.540;13.416;2024-02-21T13:13:22;19.50;43.40
84141;DHT22;74257;52.540;13.416;2024-02-21T13:15:48;19.50;43.40
84141;DHT22;74257;52.540;13.416;2024-02-21T13:18:14;19.50;43.50
84141;DHT22;74257;52.540;13.416;2024-02-21T13:20:40;19.50;43.40
84141;DHT22;74257;52.540;13.416;2024-02-21T13:23:06;19.50;43.50
84141;DHT22;74257;52.540;13.416;2024-02-21T13:25:31;19.50;43.40
84141;DHT22;74257;52.540;13.416;2024-02-21T13:27:57;19.50;43.40
84141;DHT22;74257;52.540;13.416;2024-02-21T13:30:23;19.50;43.40
84141;DHT22;74257;52.540;13.416;2024-02-21T13:32:50;19.50;43.40
84141;DHT22;74257;52.540;13.416;2024-02-21T13:35:16;19.50;43.40
84141;DHT22;74257;52.540;13.416;2024-02-21T13:37:43;19.50;43.40
84141;DHT22;74257;52.540;13.416;2024-02-21T13:40:09;19.50;43.40
84141;DHT22;74257;52.540;13.416;2024-02-21T13:42:36;19.50;43.40
84141;DHT22;74257;52.540;13.416;2024-02-21T13:45:02;19.60;43.40
84141;DHT22;74257;52.540;13.416;2024-02-21T13:47:28;19.60;43.40
84141;DHT22;74257;52.540;13.416;2024-02-21T13:49:54;19.60;43.40
84141;DHT22;74257;52.540;13.416;2024-02-21T13:52:21;19.60;43.40
84141;DHT22;74257;52.540;13.416;2024-02-21T13:54:47;19.60;43.40
84141;DHT22;74257;52.540;13.416;2024-02-21T13:57:13;19.50;43.30
84141;DHT22;74257;52.540;13.416;2024-02-21T13:59:40;19.60;43.30
84141;DHT22;74257;52.540;13.416;2024-02-21T14:02:06;19.60;43.30
84141;DHT22;74257;52.540;13.416;2024-02-21T14:04:35;19.60;43.30
84141;DHT22;74257;52.540;13.416;2024-02-21T14:07:01;19.60;43.30
84141;DHT22;74257;52.540;13.416;2024-02-21T14:09:27;19.60;43.30
84141;DHT22;74257;52.540;13.416;2024-02-21T14:11:55;19.60;43.30
84141;DHT22;74257;52.540;13.416;2024-02-21T14:14:21;19.50;43.30
84141;DHT22;74257;52.540;13.416;2024-02-21T14:16:47;19.60;43.20
84141;DHT22;74257;52.540;13.416;2024-02-21T14:19:16;19.60;43.30
84141;DHT22;74257;52.540;13.416;2024-02-21T14:21:43;19.60;43.30
84141;DHT22;74257;52.540;13.416;2024-02-21T14:24:08;19.60;43.20
84141;DHT22;74257;52.540;13.416;2024-02-21T14:26:34;19.60;43.20
84141;DHT22;74257;52.540;13.416;2024-02-21T14:29:01;19.60;43.20
84141;DHT22;74257;52.540;13.416;2024-02-21T14:31:31;19.60;43.20
84141;DHT22;74257;52.540;13.416;2024-02-21T14:33:56;19.60;43.20
84141;DHT22;74257;52.540;13.416;2024-02-21T14:36:22;19.60;43.30
84141;DHT22;74257;52.540;13.416;2024-02-21T14:38:49;19.60;43.30
84141;DHT22;74257;52.540;13.416;2024-02-21T14:41:17;19.60;43.30
84141;DHT22;74257;52.540;13.416;2024-02-21T14:43:43;19.60;43.30
84141;DHT22;74257;52.540;13.416;2024-02-21T14:46:09;19.60;43.20
84141;DHT22;74257;52.540;13.416;2024-02-21T14:48:35;19.60;43.20
84141;DHT22;74257;52.540;13.416;2024-02-21T14:51:02;19.60;43.20
84141;DHT22;74257;52.540;13.416;2024-02-21T14:53:29;19.60;43.20
84141;DHT22;74257;52.540;13.416;2024-02-21T14:55:56;19.60;43.20
84141;DHT22;74257;52.540;13.416;2024-02-21T14:58:23;19.60;43.20
84141;DHT22;74257;52.540;13.416;2024-02-21T15:00:49;19.60;43.20
84141;DHT22;74257;52.540;13.416;2024-02-21T15:03:18;19.70;43.20
84141;DHT22;74257;52.540;13.416;2024-02-21T15:05:45;19.70;43.20
84141;DHT22;74257;52.540;13.416;2024-02-21T15:08:11;19.60;43.20
84141;DHT22;74257;52.540;13.416;2024-02-21T15:10:38;19.60;43.20
84141;DHT22;74257;52.540;13.416;2024-02-21T15:13:03;19.60;43.20